Time;durP1;ratioP1;P1;durP2;ratioP2;P2;SDS_P1;SDS_P2;PMS_P1;PMS_P2;Temp;Humidity;BMP_temperature;BMP_pressure;BME280_temperature;BME280_humidity;BME280_pressure;Samples;Min_cycle;Max_cycle;Signal;HPM_P1;HPM_P2
2023/06/24 00:04:03;;;;;;;12.50;6.60;;;;;;;18.17;93.99;100884.55;220125;1266;139212;-82
2023/06/24 00:09:04;;;;;;;13.40;7.80;;;;;;;18.14;94.23;100887.21;219608;1264;142149;-82
2023/06/24 00:14:06;;;;;;;12.90;7.40;;;;;;;18.13;93.93;100887.38;220265;1266;139046;-82
2023/06/24 00:19:08;;;;;;;12.00;7.10;;;;;;;18.11;94.13;100886.61;219797;1264;142477;-82
2023/06/24 00:24:09;;;;;;;9.30;5.90;;;;;;;18.10;94.11;100888.21;220285;1264;139486;-82
2023/06/24 00:29:09;;;;;;;12.60;7.50;;;;;;;18.09;94.20;100897.79;219566;1264;141012;-81
2023/06/24 00:34:09;;;;;;;13.90;7.30;;;;;;;18.08;94.22;100894.69;220106;1265;140063;-83
2023/06/24 00:39:10;;;;;;;12.70;7.50;;;;;;;18.06;94.48;100895.11;219517;1265;140995;-83
2023/06/24 00:44:11;;;;;;;13.70;6.90;;;;;;;18.06;94.27;100897.33;220494;1267;139882;-83
2023/06/24 00:49:14;;;;;;;12.50;6.70;;;;;;;18.05;94.65;100901.96;219797;1264;142748;-81
2023/06/24 00:54:15;;;;;;;12.40;6.80;;;;;;;18.04;94.30;100907.09;220048;1264;138957;-82
2023/06/24 00:59:17;;;;;;;10.50;6.50;;;;;;;18.02;94.20;100908.93;219563;1268;141316;-82
2023/06/24 01:04:18;;;;;;;11.30;6.20;;;;;;;17.98;94.50;100917.64;219905;1263;139494;-82
2023/06/24 01:09:18;;;;;;;12.90;5.80;;;;;;;17.92;93.71;100922.80;219338;1264;141730;-82
2023/06/24 01:14:20;;;;;;;15.10;7.20;;;;;;;17.89;93.76;100924.27;220068;1264;138943;-82
2023/06/24 01:19:42;;;;;;;10.30;5.10;;;;;;;17.87;93.48;100926.52;219476;1264;141658;-82
2023/06/24 01:25:08;;;;;;;12.50;6.70;;;;;;;17.85;93.83;100924.01;220581;1263;139035;-82
2023/06/24 01:30:31;;;;;;;10.70;5.50;;;;;;;17.83;94.39;100927.83;219491;1267;142157;-81
2023/06/24 01:35:34;;;;;;;8.70;5.30;;;;;;;17.83;94.63;100929.74;220028;1268;139316;-81
2023/06/24 01:40:40;;;;;;;9.80;5.60;;;;;;;17.82;94.57;100935.48;219779;1264;140933;-82
2023/06/24 01:45:43;;;;;;;10.30;5.80;;;;;;;17.79;94.19;100934.55;221100;1267;139266;-82
2023/06/24 01:50:48;;;;;;;11.10;5.70;;;;;;;17.77;94.49;100936.26;219457;1268;141215;-82
2023/06/24 01:55:50;;;;;;;9.20;5.60;;;;;;;17.76;94.73;100937.14;220136;1268;110487;-82
2023/06/24 02:00:52;;;;;;;12.10;5.60;;;;;;;17.73;94.43;100928.97;219609;1265;142817;-82
2023/06/24 02:05:53;;;;;;;10.70;6.40;;;;;;;17.72;94.24;100932.55;220067;1264;138934;-81
2023/06/24 02:10:55;;;;;;;10.60;6.10;;;;;;;17.71;94.59;100933.86;219582;1267;141412;-82
2023/06/24 02:15:56;;;;;;;10.40;6.40;;;;;;;17.69;94.91;100941.34;220114;1267;139347;-81
2023/06/24 02:20:57;;;;;;;14.30;7.80;;;;;;;17.68;95.28;100943.02;219656;1267;141390;-81
2023/06/24 02:25:59;;;;;;;13.10;6.80;;;;;;;17.64;95.73;100950.06;220482;1267;97965;-81
2023/06/24 02:31:01;;;;;;;12.10;6.60;;;;;;;17.61;96.16;100957.41;220217;1264;140996;-81
2023/06/24 02:36:01;;;;;;;12.20;6.90;;;;;;;17.60;96.30;100959.65;220177;1265;138807;-81
2023/06/24 02:41:04;;;;;;;12.40;7.10;;;;;;;17.60;96.51;100959.96;219662;1268;140979;-82
2023/06/24 02:46:07;;;;;;;10.60;6.50;;;;;;;17.59;96.45;100958.86;220148;1264;139044;-82
2023/06/24 02:51:10;;;;;;;11.90;7.30;;;;;;;17.58;96.50;100960.77;219395;1266;141010;-82
2023/06/24 02:56:12;;;;;;;11.00;6.90;;;;;;;17.57;96.69;100962.61;220037;1266;139952;-82
2023/06/24 03:01:12;;;;;;;13.60;6.70;;;;;;;17.57;96.47;100966.02;219806;1268;141595;-81
2023/06/24 03:06:17;;;;;;;11.30;7.00;;;;;;;17.57;96.92;100980.20;220229;1266;138789;-82
2023/06/24 03:11:17;;;;;;;12.00;6.90;;;;;;;17.56;97.14;100990.77;220167;1267;140862;-82
2023/06/24 03:16:18;;;;;;;14.70;7.30;;;;;;;17.55;97.38;100993.65;220433;1267;139188;-82
2023/06/24 03:21:18;;;;;;;14.10;7.90;;;;;;;17.53;97.70;100998.43;219682;1267;142632;-82
2023/06/24 03:26:18;;;;;;;13.80;7.30;;;;;;;17.52;97.97;101003.05;220321;1264;139395;-82
2023/06/24 03:31:23;;;;;;;12.30;7.00;;;;;;;17.49;98.18;101008.48;219954;1268;144080;-81
2023/06/24 03:36:24;;;;;;;9.70;6.50;;;;;;;17.49;98.66;101012.77;220120;1268;139923;-81
2023/06/24 03:41:26;;;;;;;13.60;7.90;;;;;;;17.50;98.65;101013.73;219640;1264;140774;-82
2023/06/24 03:46:26;;;;;;;12.50;7.60;;;;;;;17.51;98.52;101015.79;220267;1268;139663;-81
2023/06/24 03:51:27;;;;;;;15.60;7.80;;;;;;;17.52;98.66;101012.75;219680;1264;141942;-81
2023/06/24 03:56:27;;;;;;;14.60;8.20;;;;;;;17.54;99.26;101010.98;220067;1264;139085;-81
2023/06/24 04:01:31;;;;;;;13.50;8.20;;;;;;;17.56;99.44;101009.55;219771;1264;140570;-82
2023/06/24 04:06:31;;;;;;;14.10;8.90;;;;;;;17.58;99.48;101016.52;220228;1264;138881;-81
2023/06/24 04:11:32;;;;;;;15.80;8.30;;;;;;;17.62;99.45;101020.95;219717;1268;139763;-82
2023/06/24 04:16:33;;;;;;;14.10;8.00;;;;;;;17.64;99.68;101018.23;220715;1264;139059;-82
2023/06/24 04:21:33;;;;;;;13.50;7.50;;;;;;;17.68;99.54;101025.35;219887;1264;141449;-82
2023/06/24 04:26:33;;;;;;;13.50;8.80;;;;;;;17.70;99.60;101029.15;220091;1264;140692;-82
2023/06/24 04:31:34;;;;;;;13.50;8.10;;;;;;;17.73;99.43;101030.16;219627;1267;140890;-81
2023/06/24 04:36:35;;;;;;;12.50;7.10;;;;;;;17.76;99.41;101028.46;220050;1267;139110;-82
2023/06/24 04:41:35;;;;;;;12.30;7.90;;;;;;;17.79;99.45;101034.79;219445;1264;140648;-82
2023/06/24 04:46:36;;;;;;;14.90;7.80;;;;;;;17.84;99.67;101037.15;219986;1264;139278;-82
2023/06/24 04:51:37;;;;;;;15.50;7.70;;;;;;;17.88;99.56;101043.32;219617;1264;142569;-81
2023/06/24 04:56:39;;;;;;;11.70;7.60;;;;;;;17.95;99.57;101042.14;220457;1264;139219;-81
2023/06/24 05:01:39;;;;;;;14.00;8.00;;;;;;;18.01;99.39;101047.57;220297;1264;142126;-83
2023/06/24 05:06:40;;;;;;;15.90;8.70;;;;;;;18.12;99.60;101048.02;220361;1267;139275;-82
2023/06/24 05:11:41;;;;;;;14.50;8.00;;;;;;;18.21;99.51;101043.86;219466;1267;141354;-82
2023/06/24 05:16:41;;;;;;;14.40;8.10;;;;;;;18.32;99.15;101041.23;219979;1267;139311;-82
2023/06/24 05:21:42;;;;;;;12.50;8.30;;;;;;;18.45;98.66;101047.95;219639;1267;141196;-82
2023/06/24 05:26:42;;;;;;;12.60;7.20;;;;;;;18.58;98.77;101049.30;220388;1267;139808;-82
2023/06/24 05:31:43;;;;;;;13.20;8.50;;;;;;;18.74;98.60;101047.52;219937;1267;142123;-82
2023/06/24 05:36:43;;;;;;;14.70;8.30;;;;;;;18.90;97.78;101045.95;220431;1267;139637;-81
2023/06/24 05:41:44;;;;;;;15.90;7.30;;;;;;;19.07;96.81;101044.78;219636;1264;140621;-82
2023/06/24 05:46:45;;;;;;;11.10;6.70;;;;;;;19.23;96.08;101045.67;220199;1267;140548;-82
2023/06/24 05:51:45;;;;;;;14.30;7.90;;;;;;;19.47;95.54;101050.60;219652;1264;141352;-82
2023/06/24 05:56:46;;;;;;;35.30;9.90;;;;;;;19.68;95.03;101048.13;220473;1264;139169;-82
2023/06/24 06:01:46;;;;;;;24.10;9.00;;;;;;;19.87;94.08;101046.29;219797;1264;141517;-83
2023/06/24 06:06:46;;;;;;;23.70;10.20;;;;;;;20.05;93.58;101049.80;220790;1264;139202;-82
2023/06/24 06:11:47;;;;;;;14.20;8.40;;;;;;;20.15;92.64;101054.59;220060;1264;142375;-82
2023/06/24 06:16:48;;;;;;;12.30;6.90;;;;;;;20.21;91.76;101051.27;220761;1265;139268;-82
2023/06/24 06:21:51;;;;;;;14.10;7.40;;;;;;;20.35;91.26;101044.48;220280;1264;142791;-83
2023/06/24 06:26:51;;;;;;;11.50;6.90;;;;;;;20.53;90.79;101052.84;220835;1264;139227;-82
2023/06/24 06:31:52;;;;;;;13.40;7.00;;;;;;;20.66;89.79;101057.29;219934;1264;141129;-82
2023/06/24 06:36:53;;;;;;;12.30;7.50;;;;;;;20.75;89.08;101061.10;220203;1264;203538;-83
2023/06/24 06:41:53;;;;;;;11.40;6.80;;;;;;;20.89;89.11;101059.56;220216;1264;142469;-83
2023/06/24 06:46:53;;;;;;;12.00;7.30;;;;;;;20.97;88.18;101056.51;221090;1263;139156;-82
2023/06/24 06:51:55;;;;;;;12.80;7.10;;;;;;;21.06;87.50;101057.98;220257;1264;143131;-82
2023/06/24 06:57:00;;;;;;;10.10;6.20;;;;;;;21.16;86.47;101062.73;220737;1264;139169;-82
2023/06/24 07:02:00;;;;;;;10.90;6.30;;;;;;;21.34;86.06;101065.67;219945;1263;141790;-82
2023/06/24 07:07:01;;;;;;;11.60;6.30;;;;;;;21.49;85.61;101064.29;220647;1264;138703;-83
2023/06/24 07:12:02;;;;;;;12.20;7.10;;;;;;;21.69;84.95;101061.33;220070;1263;142386;-81
2023/06/24 07:17:02;;;;;;;14.40;6.50;;;;;;;21.95;83.72;101059.11;220423;1264;138998;-81
2023/06/24 07:22:03;;;;;;;13.50;7.70;;;;;;;22.43;84.13;101060.71;220006;1264;140876;-83
2023/06/24 07:27:03;;;;;;;11.80;7.20;;;;;;;22.93;81.81;101062.90;220495;1264;139989;-82
2023/06/24 07:32:04;;;;;;;11.20;6.60;;;;;;;23.48;80.87;101063.15;220048;1264;141347;-82
2023/06/24 07:37:04;;;;;;;10.40;7.40;;;;;;;24.16;79.39;101064.28;220541;1264;98432;-83
2023/06/24 07:42:05;;;;;;;15.10;6.70;;;;;;;24.80;77.21;101058.31;219850;1266;141730;-82
2023/06/24 07:47:06;;;;;;;12.50;5.80;;;;;;;25.32;75.34;101067.00;220640;1263;139711;-83
2023/06/24 07:52:07;;;;;;;15.70;6.20;;;;;;;25.73;72.47;101070.27;220473;1263;142572;-84
2023/06/24 07:57:07;;;;;;;8.10;5.40;;;;;;;25.76;69.40;101068.69;221611;1264;138722;-84
2023/06/24 08:02:07;;;;;;;11.90;5.20;;;;;;;26.02;69.78;101068.30;220757;1264;140481;-83
2023/06/24 08:07:08;;;;;;;10.10;5.70;;;;;;;26.69;68.47;101069.54;221652;1264;97915;-82
2023/06/24 08:12:09;;;;;;;10.80;6.00;;;;;;;27.39;67.13;101067.00;220835;1264;140194;-83
2023/06/24 08:17:09;;;;;;;11.30;5.60;;;;;;;28.03;65.33;101073.41;221353;1264;138338;-82
2023/06/24 08:22:10;;;;;;;11.00;5.50;;;;;;;28.66;63.66;101067.95;220776;1264;141069;-83
2023/06/24 08:27:10;;;;;;;8.30;4.70;;;;;;;28.99;60.92;101074.56;221099;1263;138817;-84
2023/06/24 08:32:10;;;;;;;9.30;5.60;;;;;;;29.27;58.12;101077.92;220820;1267;140909;-82
2023/06/24 08:37:11;;;;;;;9.20;4.80;;;;;;;29.72;56.82;101076.10;221571;1264;97440;-83
2023/06/24 08:42:11;;;;;;;9.50;5.60;;;;;;;30.22;56.50;101082.89;220877;1264;140256;-81
2023/06/24 08:47:14;;;;;;;10.40;5.50;;;;;;;30.72;54.63;101078.98;221419;1264;138534;-82
2023/06/24 08:52:16;;;;;;;9.20;5.00;;;;;;;31.01;53.30;101072.83;220818;1263;141125;-83
2023/06/24 08:57:16;;;;;;;9.00;4.80;;;;;;;31.48;52.23;101068.34;221460;1264;138116;-83
2023/06/24 09:02:17;;;;;;;11.70;4.90;;;;;;;31.91;52.06;101058.93;220868;1263;139785;-83
2023/06/24 09:07:27;;;;;;;8.90;4.60;;;;;;;32.53;50.98;101056.45;221363;1264;97940;-81
2023/06/24 09:12:31;;;;;;;10.60;4.60;;;;;;;33.11;49.63;101053.17;220971;1264;140791;-83
2023/06/24 09:17:32;;;;;;;7.10;4.50;;;;;;;33.72;48.03;101054.80;221399;1264;138376;-83
2023/06/24 09:22:32;;;;;;;6.90;4.50;;;;;;;33.87;44.93;101062.45;220789;1264;140125;-83
2023/06/24 09:27:33;;;;;;;7.30;4.00;;;;;;;33.81;45.74;101063.29;221544;1264;138214;-82
2023/06/24 09:32:33;;;;;;;8.00;4.00;;;;;;;34.24;44.55;101058.15;221012;1264;141370;-82
2023/06/24 09:37:34;;;;;;;7.30;4.00;;;;;;;34.40;43.79;101059.30;221399;1263;98000;-84
2023/06/24 09:42:34;;;;;;;5.90;3.80;;;;;;;34.49;42.01;101057.80;221008;1264;140141;-82
2023/06/24 09:47:35;;;;;;;7.00;4.00;;;;;;;35.03;42.92;101060.45;221655;1264;138036;-82
2023/06/24 09:52:36;;;;;;;11.80;5.20;;;;;;;35.40;41.36;101066.90;221012;1264;141054;-83
2023/06/24 09:57:37;;;;;;;6.80;4.40;;;;;;;35.40;40.70;101067.05;221421;1264;138425;-83
2023/06/24 10:02:38;;;;;;;9.10;4.30;;;;;;;35.79;39.50;101059.73;221092;1264;140337;-83
2023/06/24 10:07:40;;;;;;;6.10;3.90;;;;;;;35.65;38.45;101062.05;221356;1264;96694;-83
2023/06/24 10:12:40;;;;;;;6.90;3.90;;;;;;;35.51;37.91;101060.96;221073;1267;139391;-85
2023/06/24 10:17:41;;;;;;;9.50;4.10;;;;;;;35.64;39.03;101060.23;221557;1264;137874;-83
2023/06/24 10:22:46;;;;;;;7.70;4.10;;;;;;;36.16;38.01;101056.35;220936;1264;140435;-84
2023/06/24 10:27:53;;;;;;;6.60;3.70;;;;;;;36.51;37.23;101060.44;221649;1264;138851;-86
2023/06/24 10:32:54;;;;;;;8.70;4.00;;;;;;;36.46;36.00;101063.16;220870;1264;141516;-85
2023/06/24 10:37:56;;;;;;;6.40;4.00;;;;;;;36.33;36.17;101051.61;221336;1264;97660;-85
2023/06/24 10:42:57;;;;;;;10.70;4.20;;;;;;;36.64;35.76;101052.63;220789;1264;140584;-85
2023/06/24 10:47:59;;;;;;;10.00;5.60;;;;;;;36.02;34.46;101051.84;221210;1266;139457;-86
2023/06/24 10:53:01;;;;;;;9.00;4.30;;;;;;;35.20;34.61;101052.31;220871;1263;140919;-88
2023/06/24 10:58:10;;;;;;;7.70;4.40;;;;;;;34.16;34.74;101045.95;224191;1264;138300;-87
2023/06/24 11:03:12;;;;;;;6.80;3.90;;;;;;;34.31;35.77;101041.30;220923;1264;139968;-85
2023/06/24 11:08:13;;;;;;;7.20;4.30;;;;;;;34.51;36.71;101039.80;221451;1264;139058;-85
2023/06/24 11:13:13;;;;;;;6.50;4.50;;;;;;;35.00;35.82;101038.58;220971;1264;141205;-84
2023/06/24 11:18:14;;;;;;;6.20;4.30;;;;;;;35.47;35.14;101035.71;221605;1264;138334;-85
2023/06/24 11:23:14;;;;;;;7.40;4.20;;;;;;;36.01;35.26;101027.18;221601;1264;142711;-86
2023/06/24 11:28:18;;;;;;;8.90;4.20;;;;;;;36.00;34.38;101025.89;221902;1263;138401;-87
2023/06/24 11:33:28;;;;;;;6.90;3.90;;;;;;;36.06;34.65;101030.20;221336;1264;141751;-87
2023/06/24 11:38:31;;;;;;;7.80;4.00;;;;;;;36.45;35.24;101028.41;221749;1265;138651;-88
2023/06/24 11:43:33;;;;;;;7.30;4.40;;;;;;;36.88;33.78;101025.10;221415;1265;140377;-87
2023/06/24 11:48:39;;;;;;;12.40;4.20;;;;;;;36.94;33.78;101017.75;221467;1267;138913;-86
2023/06/24 11:53:43;;;;;;;8.50;4.60;;;;;;;36.51;33.59;101019.56;220942;1263;141877;-87
2023/06/24 11:58:44;;;;;;;8.00;4.50;;;;;;;36.71;32.70;101013.88;221352;1264;138922;-88
2023/06/24 12:03:44;;;;;;;7.70;4.00;;;;;;;36.56;31.16;101010.64;220754;1264;139467;-86
2023/06/24 12:08:45;;;;;;;6.00;3.80;;;;;;;35.85;31.84;101013.39;221339;1264;139281;-88
2023/06/24 12:13:45;;;;;;;10.40;4.80;;;;;;;35.36;32.11;101011.02;221133;1263;140083;-88
2023/06/24 12:18:45;;;;;;;6.20;4.10;;;;;;;35.10;33.17;101010.45;221525;1264;138118;-88
2023/06/24 12:23:46;;;;;;;7.20;4.10;;;;;;;34.91;32.52;101010.66;220825;1265;140075;-88
2023/06/24 12:28:46;;;;;;;6.80;4.40;;;;;;;34.85;32.32;100998.95;221297;1265;138130;-87
2023/06/24 12:33:46;;;;;;;7.60;4.50;;;;;;;34.81;32.51;101000.86;221137;1264;139942;-88
2023/06/24 12:38:47;;;;;;;13.80;4.50;;;;;;;34.79;32.83;100999.09;221394;1264;139101;-88
2023/06/24 12:43:47;;;;;;;7.60;4.30;;;;;;;34.69;32.29;101004.09;221473;1265;140177;-87
2023/06/24 12:48:48;;;;;;;6.60;4.10;;;;;;;34.53;33.04;101009.59;221623;1264;137940;-86
2023/06/24 12:53:49;;;;;;;12.50;4.30;;;;;;;34.61;33.09;101013.14;221161;1264;141270;-88
2023/06/24 12:58:49;;;;;;;7.90;4.80;;;;;;;34.51;33.14;101011.73;221336;1264;138400;-87
2023/06/24 13:03:50;;;;;;;7.50;4.50;;;;;;;34.21;32.72;101013.11;221063;1264;139151;-87
2023/06/24 13:08:53;;;;;;;9.50;5.00;;;;;;;34.22;33.20;101004.69;221528;1264;139977;-84
2023/06/24 13:13:54;;;;;;;6.30;3.60;;;;;;;34.24;33.26;101006.72;222367;1265;97938;-85
2023/06/24 13:18:55;;;;;;;8.20;4.60;;;;;;;34.09;32.83;101002.09;221091;1264;162342;-81
2023/06/24 13:23:55;;;;;;;7.80;4.20;;;;;;;34.07;33.76;101005.12;221636;1264;137944;-83
2023/06/24 13:28:55;;;;;;;10.50;4.80;;;;;;;34.05;32.60;101000.45;220733;1264;142851;-84
2023/06/24 13:33:56;;;;;;;7.40;4.80;;;;;;;33.78;33.13;100997.00;221335;1267;138456;-82
2023/06/24 13:38:56;;;;;;;10.00;4.90;;;;;;;33.42;33.86;100996.81;220902;1264;140205;-84
2023/06/24 13:43:57;;;;;;;8.20;5.10;;;;;;;33.33;33.88;100995.77;221500;1264;97942;-83
2023/06/24 13:48:58;;;;;;;6.40;4.60;;;;;;;33.11;34.65;100998.92;220614;1264;140239;-82
2023/06/24 13:53:59;;;;;;;7.20;4.50;;;;;;;32.99;34.43;101002.61;221135;1264;138574;-82
2023/06/24 13:58:59;;;;;;;8.50;4.90;;;;;;;32.62;34.65;101003.63;220989;1264;141373;-83
2023/06/24 14:04:00;;;;;;;7.70;5.20;;;;;;;32.68;35.27;101000.73;221643;1264;138807;-84
2023/06/24 14:09:00;;;;;;;8.20;5.30;;;;;;;32.79;35.09;101000.05;220978;1265;140422;-84
2023/06/24 14:14:01;;;;;;;10.20;5.80;;;;;;;32.74;35.38;100999.48;221574;1263;98002;-84
2023/06/24 14:19:01;;;;;;;8.80;5.20;;;;;;;32.28;34.59;100999.57;220778;1264;141079;-85
2023/06/24 14:24:02;;;;;;;10.90;5.60;;;;;;;32.13;34.91;101000.08;221253;1265;138461;-85
2023/06/24 14:29:03;;;;;;;7.70;5.10;;;;;;;31.87;35.25;100999.59;220494;1266;141334;-84
2023/06/24 14:34:03;;;;;;;8.50;5.60;;;;;;;31.56;35.91;100994.84;221276;1265;138880;-85
2023/06/24 14:39:04;;;;;;;8.30;5.50;;;;;;;31.21;36.49;100988.58;220776;1264;140923;-83
2023/06/24 14:44:04;;;;;;;9.80;5.60;;;;;;;31.27;37.15;100990.87;221494;1264;98173;-85
2023/06/24 14:49:04;;;;;;;7.40;4.80;;;;;;;31.24;37.35;100983.17;220884;1264;140265;-85
2023/06/24 14:54:05;;;;;;;13.40;5.40;;;;;;;31.25;37.08;100974.39;221169;1266;138067;-85
2023/06/24 14:59:05;;;;;;;13.30;5.90;;;;;;;31.06;37.42;100971.48;220859;1264;141206;-83
2023/06/24 15:04:06;;;;;;;9.10;4.90;;;;;;;30.94;37.18;100960.17;221349;1264;138450;-84
2023/06/24 15:09:09;;;;;;;9.90;5.70;;;;;;;30.75;37.62;100964.70;220853;1265;140318;-82
2023/06/24 15:14:09;;;;;;;9.90;5.30;;;;;;;30.55;38.23;100964.02;221162;1265;138313;-82
2023/06/24 15:19:09;;;;;;;9.10;5.20;;;;;;;30.41;37.32;100966.67;220930;1264;140744;-84
2023/06/24 15:24:10;;;;;;;9.30;5.20;;;;;;;30.32;39.09;100963.89;221263;1263;138538;-84
2023/06/24 15:29:10;;;;;;;9.60;4.80;;;;;;;30.29;38.68;100961.31;220768;1267;140003;-84
2023/06/24 15:34:11;;;;;;;10.20;5.50;;;;;;;30.02;37.62;100955.98;221219;1263;138130;-84
2023/06/24 15:39:12;;;;;;;10.20;5.60;;;;;;;29.78;38.62;100948.45;220539;1267;141414;-83
2023/06/24 15:44:13;;;;;;;10.80;4.80;;;;;;;29.66;38.96;100954.38;221154;1264;138552;-84
2023/06/24 15:49:14;;;;;;;7.20;4.90;;;;;;;29.37;38.98;100952.67;220864;1266;142073;-83
2023/06/24 15:54:15;;;;;;;9.90;5.30;;;;;;;29.02;39.36;100949.75;221304;1267;138429;-82
2023/06/24 15:59:15;;;;;;;13.20;5.50;;;;;;;28.62;39.50;100948.95;220854;1263;140037;-83
2023/06/24 16:04:16;;;;;;;9.50;5.50;;;;;;;28.42;40.21;100950.02;221218;1266;138680;-84
2023/06/24 16:09:16;;;;;;;8.80;5.10;;;;;;;28.20;40.59;100950.62;220554;1266;140575;-83
2023/06/24 16:14:17;;;;;;;9.20;5.50;;;;;;;28.00;41.55;100956.95;220986;1266;138344;-83
2023/06/24 16:19:17;;;;;;;8.50;5.00;;;;;;;27.81;41.58;100952.52;220786;1266;140017;-84
2023/06/24 16:24:17;;;;;;;10.40;5.90;;;;;;;27.64;42.68;100960.98;221492;1265;138257;-82
2023/06/24 16:29:18;;;;;;;9.50;5.70;;;;;;;27.50;42.70;100957.98;220934;1265;140950;-83
2023/06/24 16:34:18;;;;;;;8.60;5.70;;;;;;;27.28;43.08;100956.91;221112;1266;138414;-84
2023/06/24 16:39:21;;;;;;;9.20;5.40;;;;;;;27.05;43.21;100959.29;221231;1265;140783;-84
2023/06/24 16:44:21;;;;;;;9.90;6.00;;;;;;;26.82;44.16;100957.88;221456;1267;138511;-83
2023/06/24 16:49:22;;;;;;;11.10;5.90;;;;;;;26.68;44.67;100957.35;221212;1263;141546;-83
2023/06/24 16:54:24;;;;;;;8.60;5.70;;;;;;;26.53;45.05;100954.58;221476;1264;138095;-83
2023/06/24 16:59:25;;;;;;;10.10;5.50;;;;;;;26.32;45.36;100956.35;220902;1264;141466;-85
2023/06/24 17:04:25;;;;;;;9.90;6.10;;;;;;;26.14;45.73;100960.88;221500;1265;138879;-82
2023/06/24 17:09:25;;;;;;;12.40;6.50;;;;;;;25.94;46.26;100957.39;221259;1265;140929;-83
2023/06/24 17:14:26;;;;;;;10.60;6.00;;;;;;;25.69;46.43;100955.73;221269;1266;138539;-83
2023/06/24 17:19:27;;;;;;;9.50;6.00;;;;;;;25.51;47.24;100954.17;221063;1267;141390;-84
2023/06/24 17:24:27;;;;;;;11.40;6.60;;;;;;;25.36;47.91;100947.95;221405;1266;140399;-84
2023/06/24 17:29:28;;;;;;;9.30;6.50;;;;;;;25.21;48.39;100951.05;220951;1264;140013;-83
2023/06/24 17:34:28;;;;;;;12.60;7.10;;;;;;;25.10;49.23;100942.95;221786;1264;138161;-84
2023/06/24 17:39:29;;;;;;;11.00;6.20;;;;;;;25.07;49.60;100947.02;221454;1263;140499;-84
2023/06/24 17:44:29;;;;;;;12.00;6.90;;;;;;;25.00;50.14;100948.11;221834;1264;138840;-84
2023/06/24 17:49:29;;;;;;;11.50;6.50;;;;;;;24.91;50.49;100951.28;221395;1267;141599;-83
2023/06/24 17:54:30;;;;;;;10.00;6.40;;;;;;;24.80;50.96;100954.29;221787;1265;138298;-83
2023/06/24 17:59:30;;;;;;;10.20;6.40;;;;;;;24.74;51.40;100949.44;221358;1265;142251;-83
2023/06/24 18:04:30;;;;;;;10.50;6.50;;;;;;;24.67;51.89;100951.90;221715;1268;140528;-83
2023/06/24 18:09:31;;;;;;;12.00;7.10;;;;;;;24.53;52.26;100956.29;221229;1263;140318;-84
2023/06/24 18:14:31;;;;;;;10.40;6.70;;;;;;;24.42;52.51;100951.06;221492;1267;138319;-85
2023/06/24 18:19:31;;;;;;;11.30;6.90;;;;;;;24.37;52.87;100958.59;221310;1263;141038;-84
2023/06/24 18:24:32;;;;;;;12.10;6.60;;;;;;;24.25;52.83;100959.09;221608;1264;138151;-85
2023/06/24 18:29:33;;;;;;;13.00;7.00;;;;;;;24.13;52.76;100961.06;220981;1265;141804;-85
2023/06/24 18:34:33;;;;;;;11.40;6.20;;;;;;;24.05;52.75;100962.39;221733;1266;138381;-85
2023/06/24 18:39:34;;;;;;;11.60;6.50;;;;;;;23.96;52.89;100960.73;221118;1264;140686;-84
2023/06/24 18:44:34;;;;;;;9.40;6.30;;;;;;;23.83;53.15;100964.26;221659;1266;138345;-85
2023/06/24 18:49:34;;;;;;;11.30;5.90;;;;;;;23.73;53.31;100966.47;221035;1266;139683;-85
2023/06/24 18:54:35;;;;;;;10.50;5.00;;;;;;;23.63;53.93;100968.43;221491;1267;138313;-85
2023/06/24 18:59:35;;;;;;;10.30;5.60;;;;;;;23.52;53.63;100970.65;220898;1267;140307;-85
2023/06/24 19:04:36;;;;;;;9.40;5.90;;;;;;;23.42;54.25;100971.70;221384;1263;138591;-85
2023/06/24 19:09:37;;;;;;;13.20;6.10;;;;;;;23.31;54.65;100971.95;221002;1265;141093;-85
2023/06/24 19:14:37;;;;;;;10.50;6.20;;;;;;;23.16;54.84;100983.20;221812;1266;139957;-84
2023/06/24 19:19:37;;;;;;;10.30;5.60;;;;;;;23.00;55.36;100985.70;221686;1266;140564;-84
2023/06/24 19:24:38;;;;;;;8.90;5.40;;;;;;;22.87;55.65;100984.34;221464;1264;138457;-86
2023/06/24 19:29:38;;;;;;;9.40;5.50;;;;;;;22.73;56.47;100992.70;221212;1264;140799;-85
2023/06/24 19:34:39;;;;;;;9.70;5.20;;;;;;;22.56;57.21;100996.89;221616;1264;138247;-85
2023/06/24 19:39:39;;;;;;;8.00;5.00;;;;;;;22.42;57.69;101000.00;221219;1266;140278;-86
2023/06/24 19:44:39;;;;;;;11.10;5.10;;;;;;;22.26;58.06;100996.10;221645;1264;138416;-85
2023/06/24 19:49:54;;;;;;;10.30;5.20;;;;;;;22.08;58.64;100997.41;221426;1266;140450;-85
2023/06/24 19:54:55;;;;;;;9.40;4.80;;;;;;;21.88;58.93;100998.66;221722;1268;138306;-85
2023/06/24 19:59:55;;;;;;;9.60;5.30;;;;;;;21.72;59.02;101002.77;221102;1267;141833;-86
2023/06/24 20:04:55;;;;;;;9.60;5.30;;;;;;;21.56;59.29;101002.42;221721;1264;138141;-84
2023/06/24 20:09:56;;;;;;;9.60;5.10;;;;;;;21.40;59.88;101003.20;220950;1266;140755;-84
2023/06/24 20:14:56;;;;;;;9.00;5.20;;;;;;;21.19;60.14;101004.98;221720;1266;138575;-82
2023/06/24 20:19:57;;;;;;;11.90;5.30;;;;;;;20.99;60.79;101005.27;221302;1264;139508;-84
2023/06/24 20:24:57;;;;;;;10.90;5.30;;;;;;;20.78;61.45;101005.15;221805;1266;138767;-84
2023/06/24 20:29:58;;;;;;;8.80;5.00;;;;;;;20.62;61.80;101005.60;221396;1267;151296;-84
2023/06/24 20:34:58;;;;;;;9.80;4.80;;;;;;;20.40;61.30;101005.08;221769;1267;139593;-83
2023/06/24 20:39:58;;;;;;;8.20;4.80;;;;;;;20.14;61.26;101010.68;221170;1268;140219;-84
2023/06/24 20:44:59;;;;;;;7.50;4.10;;;;;;;19.95;60.33;101011.65;222157;1268;138288;-84
2023/06/24 20:50:00;;;;;;;7.20;3.20;;;;;;;19.75;60.32;101012.16;221789;1266;139812;-83
2023/06/24 20:55:01;;;;;;;8.40;3.40;;;;;;;19.61;60.10;101007.54;221765;1263;137895;-84
2023/06/24 21:00:02;;;;;;;8.70;3.40;;;;;;;19.48;60.03;101010.23;221248;1264;143594;-83
2023/06/24 21:05:02;;;;;;;7.00;3.80;;;;;;;19.35;59.36;101014.27;221897;1265;140674;-82
2023/06/24 21:10:03;;;;;;;8.10;3.50;;;;;;;19.20;59.34;101016.54;221426;1266;140563;-81
2023/06/24 21:15:04;;;;;;;6.50;3.20;;;;;;;19.03;59.25;101020.60;221801;1266;138348;-82
2023/06/24 21:20:05;;;;;;;6.70;3.50;;;;;;;18.90;59.48;101024.68;221207;1264;140115;-82
2023/06/24 21:25:06;;;;;;;7.10;3.40;;;;;;;18.78;59.24;101019.98;221691;1264;139028;-82
2023/06/24 21:30:07;;;;;;;14.90;3.70;;;;;;;18.63;59.27;101020.34;220908;1267;141615;-82
2023/06/24 21:35:08;;;;;;;7.10;3.10;;;;;;;18.54;60.41;101018.75;221514;1267;138277;-82
2023/06/24 21:40:09;;;;;;;8.50;3.70;;;;;;;18.50;60.60;101022.33;220656;1268;140793;-82
2023/06/24 21:45:10;;;;;;;6.40;3.20;;;;;;;18.41;60.80;101027.14;221016;1268;138154;-82
2023/06/24 21:50:11;;;;;;;6.60;3.20;;;;;;;18.28;60.85;101023.58;220833;1268;140478;-82
2023/06/24 21:55:11;;;;;;;5.90;2.90;;;;;;;18.14;60.73;101019.98;221333;1264;97871;-82
2023/06/24 22:00:17;;;;;;;6.60;3.10;;;;;;;17.96;61.60;101022.00;220576;1264;139542;-82
2023/06/24 22:05:18;;;;;;;8.70;3.50;;;;;;;17.80;62.52;101022.62;221036;1267;139230;-82
2023/06/24 22:10:18;;;;;;;8.60;4.10;;;;;;;17.63;63.16;101022.29;220631;1264;141715;-82
2023/06/24 22:15:28;;;;;;;6.10;3.10;;;;;;;17.50;63.78;101026.92;222419;1264;138251;-82
2023/06/24 22:20:29;;;;;;;8.00;3.40;;;;;;;17.34;64.66;101030.03;221081;1264;140092;-82
2023/06/24 22:25:29;;;;;;;7.10;3.10;;;;;;;17.21;65.04;101028.84;221155;1264;97907;-82
2023/06/24 22:30:33;;;;;;;6.30;3.30;;;;;;;17.07;65.86;101030.84;220463;1264;140656;-82
2023/06/24 22:35:33;;;;;;;7.30;3.30;;;;;;;16.94;66.46;101031.63;220834;1269;138088;-81
2023/06/24 22:40:33;;;;;;;7.30;3.40;;;;;;;16.80;67.18;101033.11;220681;1264;140082;-81